Time;durP1;ratioP1;P1;durP2;ratioP2;P2;SDS_P1;SDS_P2;PMS_P1;PMS_P2;Temp;Humidity;BMP_temperature;BMP_pressure;BME280_temperature;BME280_humidity;BME280_pressure;Samples;Min_cycle;Max_cycle;Signal;HPM_P1;HPM_P2
2023/10/17 00:01:34;;;;;;;0.20;0.20;;;;;;;;;;6210595;23;20083;-85
2023/10/17 00:06:50;;;;;;;2.20;1.15;;;;;;;;;;6217900;23;20432;-85
2023/10/17 00:09:26;;;;;;;5.95;1.05;;;;;;;;;;6210876;23;20009;-85
2023/10/17 00:14:25;;;;;;;3.30;0.50;;;;;;;;;;6213073;23;20032;-85
2023/10/17 00:16:54;;;;;;;1.35;0.77;;;;;;;;;;6212063;23;20016;-85
2023/10/17 00:19:26;;;;;;;2.88;0.90;;;;;;;;;;6212790;23;20100;-85
2023/10/17 00:21:52;;;;;;;2.20;0.70;;;;;;;;;;6211874;23;20005;-85
2023/10/17 00:24:19;;;;;;;2.47;0.82;;;;;;;;;;6212110;23;20035;-85
2023/10/17 00:26:47;;;;;;;1.00;0.57;;;;;;;;;;6212848;23;20020;-84
2023/10/17 00:29:13;;;;;;;1.60;0.40;;;;;;;;;;6212219;23;20683;-85
2023/10/17 00:31:39;;;;;;;2.95;0.88;;;;;;;;;;6210582;23;20012;-85
2023/10/17 00:34:15;;;;;;;0.65;0.63;;;;;;;;;;6210849;23;20069;-85
2023/10/17 00:36:51;;;;;;;1.35;0.63;;;;;;;;;;6210400;23;20012;-85
2023/10/17 00:39:36;;;;;;;1.05;0.20;;;;;;;;;;6210401;23;20036;-85
2023/10/17 00:44:33;;;;;;;1.77;0.90;;;;;;;;;;6212893;23;20050;-85
2023/10/17 00:47:02;;;;;;;2.03;0.73;;;;;;;;;;6210466;23;20012;-85
2023/10/17 00:49:40;;;;;;;1.20;1.08;;;;;;;;;;6212233;23;20035;-85
2023/10/17 00:52:16;;;;;;;2.20;0.70;;;;;;;;;;6210231;23;20443;-84
2023/10/17 00:54:43;;;;;;;1.45;0.70;;;;;;;;;;6211262;23;20016;-85
2023/10/17 00:57:10;;;;;;;2.40;0.93;;;;;;;;;;6211076;23;20019;-85
2023/10/17 00:59:36;;;;;;;1.55;0.75;;;;;;;;;;6209906;23;20158;-85
2023/10/17 01:02:07;;;;;;;2.80;1.25;;;;;;;;;;6211733;23;20008;-85
2023/10/17 01:04:34;;;;;;;2.92;1.20;;;;;;;;;;6210173;23;20106;-85
2023/10/17 01:07:11;;;;;;;0.93;0.73;;;;;;;;;;6211366;23;20044;-85
2023/10/17 01:09:37;;;;;;;1.83;0.80;;;;;;;;;;6211484;23;20510;-85
2023/10/17 01:12:12;;;;;;;1.65;0.65;;;;;;;;;;6212266;23;20071;-84
2023/10/17 01:14:40;;;;;;;1.95;0.30;;;;;;;;;;6211315;23;20052;-86
2023/10/17 01:17:14;;;;;;;0.82;0.63;;;;;;;;;;6212729;23;20020;-85
2023/10/17 01:19:40;;;;;;;7.90;1.20;;;;;;;;;;6209590;23;20015;-85
2023/10/17 01:22:06;;;;;;;2.35;0.82;;;;;;;;;;6209883;23;20017;-85
2023/10/17 01:24:32;;;;;;;1.45;0.50;;;;;;;;;;6209462;23;20517;-85
2023/10/17 01:27:05;;;;;;;2.88;0.47;;;;;;;;;;6210151;23;20008;-85
2023/10/17 01:29:31;;;;;;;1.67;0.80;;;;;;;;;;6209817;23;20008;-85
2023/10/17 01:31:59;;;;;;;1.85;0.95;;;;;;;;;;6209749;23;20044;-84
2023/10/17 01:34:25;;;;;;;3.20;0.75;;;;;;;;;;6209815;23;20016;-85
2023/10/17 01:36:53;;;;;;;1.13;0.40;;;;;;;;;;6209842;23;20404;-86
2023/10/17 01:39:20;;;;;;;3.00;1.35;;;;;;;;;;6209861;23;20031;-85
2023/10/17 01:41:48;;;;;;;3.90;1.13;;;;;;;;;;6210407;23;20013;-86
2023/10/17 01:44:14;;;;;;;1.70;0.65;;;;;;;;;;6211917;23;20371;-86
2023/10/17 01:46:43;;;;;;;3.05;0.60;;;;;;;;;;6211432;23;20709;-85
2023/10/17 01:49:10;;;;;;;1.42;0.35;;;;;;;;;;6211995;23;20036;-85
2023/10/17 01:51:36;;;;;;;1.30;0.50;;;;;;;;;;6211368;23;20016;-85
2023/10/17 01:54:10;;;;;;;1.33;0.75;;;;;;;;;;6212448;23;20016;-85
2023/10/17 01:56:39;;;;;;;1.77;0.55;;;;;;;;;;6212473;23;20016;-85
2023/10/17 01:59:17;;;;;;;2.58;0.75;;;;;;;;;;6213628;23;20082;-86
2023/10/17 02:01:44;;;;;;;2.80;1.17;;;;;;;;;;6213296;23;20036;-85
2023/10/17 02:04:13;;;;;;;1.60;0.60;;;;;;;;;;6215048;23;20036;-86
2023/10/17 02:06:39;;;;;;;;;;;;;;;;;;6215203;23;20012;-86
2023/10/17 02:09:24;;;;;;;;;;;;;;;;;;6212485;23;19912;-86
2023/10/17 02:11:56;;;;;;;2.13;0.50;;;;;;;;;;6211667;23;19907;-85
2023/10/17 02:14:22;;;;;;;;;;;;;;;;;;6211721;23;20013;-85
2023/10/17 02:16:51;;;;;;;1.13;0.43;;;;;;;;;;6210947;23;19915;-85
2023/10/17 02:19:20;;;;;;;1.20;0.80;;;;;;;;;;6210979;23;20055;-85
2023/10/17 02:21:50;;;;;;;1.65;0.45;;;;;;;;;;6210708;23;20511;-85
2023/10/17 02:24:19;;;;;;;0.88;0.50;;;;;;;;;;6211998;23;20008;-85
2023/10/17 02:27:00;;;;;;;0.68;0.60;;;;;;;;;;6210954;23;20019;-84
2023/10/17 02:29:28;;;;;;;1.70;0.65;;;;;;;;;;6210985;23;20012;-85
2023/10/17 02:31:55;;;;;;;0.90;0.60;;;;;;;;;;6211221;23;20656;-85
2023/10/17 02:34:22;;;;;;;1.98;0.73;;;;;;;;;;6211219;23;20447;-85
2023/10/17 02:36:54;;;;;;;3.22;1.20;;;;;;;;;;6210757;23;20017;-84
2023/10/17 02:39:20;;;;;;;2.50;0.50;;;;;;;;;;6211295;23;20023;-85
2023/10/17 02:41:47;;;;;;;1.80;0.80;;;;;;;;;;6212402;23;20019;-85
2023/10/17 02:44:18;;;;;;;1.50;0.85;;;;;;;;;;6211707;23;20751;-85
2023/10/17 02:46:44;;;;;;;0.15;0.15;;;;;;;;;;6211649;23;20012;-85
2023/10/17 02:49:13;;;;;;;4.50;0.60;;;;;;;;;;6213035;23;20051;-85
2023/10/17 02:51:43;;;;;;;4.72;0.85;;;;;;;;;;6214783;23;20008;-85
2023/10/17 02:54:12;;;;;;;0.80;0.40;;;;;;;;;;6213238;23;20076;-85
2023/10/17 02:56:46;;;;;;;2.42;0.40;;;;;;;;;;6212275;23;20012;-84
2023/10/17 02:59:12;;;;;;;3.75;1.38;;;;;;;;;;6211894;23;20013;-84
2023/10/17 03:01:39;;;;;;;0.75;0.20;;;;;;;;;;6210242;23;20316;-85
2023/10/17 03:04:09;;;;;;;0.85;0.60;;;;;;;;;;6210689;23;20103;-85
2023/10/17 03:06:39;;;;;;;0.60;0.47;;;;;;;;;;6210226;23;20017;-85
2023/10/17 03:09:16;;;;;;;1.30;0.57;;;;;;;;;;6211048;23;20040;-84
2023/10/17 03:12:07;;;;;;;0.47;0.32;;;;;;;;;;6210473;23;20027;-84
2023/10/17 03:14:40;;;;;;;3.17;0.40;;;;;;;;;;6211514;23;20008;-84
2023/10/17 03:17:10;;;;;;;1.33;0.68;;;;;;;;;;6210847;23;20032;-85
2023/10/17 03:19:37;;;;;;;4.47;1.38;;;;;;;;;;6210255;23;20460;-85
2023/10/17 03:22:16;;;;;;;0.80;0.40;;;;;;;;;;6210359;23;20016;-85
2023/10/17 03:24:46;;;;;;;0.95;0.40;;;;;;;;;;6210612;23;20005;-84
2023/10/17 03:27:23;;;;;;;1.30;0.80;;;;;;;;;;6211210;23;20013;-84
2023/10/17 03:29:49;;;;;;;1.52;0.73;;;;;;;;;;6210386;23;20019;-84
2023/10/17 03:32:15;;;;;;;0.30;0.20;;;;;;;;;;6211148;23;20425;-85
2023/10/17 03:34:45;;;;;;;9.32;0.77;;;;;;;;;;6211090;23;20451;-85
2023/10/17 03:39:53;;;;;;;1.63;0.88;;;;;;;;;;6224492;23;20020;-85
2023/10/17 03:45:15;;;;;;;0.73;0.65;;;;;;;;;;6214572;23;20101;-85
2023/10/17 03:47:42;;;;;;;3.65;0.98;;;;;;;;;;6212825;23;20352;-85
2023/10/17 03:50:09;;;;;;;0.63;0.40;;;;;;;;;;6210603;23;20012;-85
2023/10/17 03:52:38;;;;;;;1.70;0.30;;;;;;;;;;6210642;23;20016;-85
2023/10/17 03:55:10;;;;;;;1.15;0.50;;;;;;;;;;6210985;23;20372;-85
2023/10/17 03:57:39;;;;;;;1.48;0.30;;;;;;;;;;6210568;23;20020;-85
2023/10/17 04:00:25;;;;;;;0.73;0.43;;;;;;;;;;6210146;23;20013;-84
2023/10/17 04:02:51;;;;;;;0.63;0.55;;;;;;;;;;6209907;23;20028;-84
2023/10/17 04:05:17;;;;;;;2.55;1.00;;;;;;;;;;6210258;23;20598;-85
2023/10/17 04:07:51;;;;;;;0.45;0.30;;;;;;;;;;6210084;23;20045;-85
2023/10/17 04:10:20;;;;;;;1.88;0.65;;;;;;;;;;6210698;23;20016;-85
2023/10/17 04:13:12;;;;;;;0.30;0.20;;;;;;;;;;6209794;23;20040;-85
2023/10/17 04:15:35;;;;;;;0.95;0.60;;;;;;;;;;6211515;23;20020;-85
2023/10/17 04:18:02;;;;;;;3.40;0.93;;;;;;;;;;6209096;23;20016;-85
2023/10/17 04:20:36;;;;;;;4.22;0.75;;;;;;;;;;6210271;23;20017;-85
2023/10/17 04:23:02;;;;;;;3.08;0.93;;;;;;;;;;6210232;23;20072;-85
2023/10/17 04:25:34;;;;;;;1.50;0.80;;;;;;;;;;6209860;23;20035;-85
2023/10/17 04:28:01;;;;;;;1.48;0.50;;;;;;;;;;6211223;23;20012;-84
2023/10/17 04:30:35;;;;;;;3.60;1.33;;;;;;;;;;6213648;23;20036;-84
2023/10/17 04:33:13;;;;;;;4.82;1.65;;;;;;;;;;6211912;23;20101;-84
2023/10/17 04:35:54;;;;;;;1.88;0.93;;;;;;;;;;6210320;23;20009;-83
2023/10/17 04:38:26;;;;;;;0.30;0.30;;;;;;;;;;6210138;23;20344;-84
2023/10/17 04:43:45;;;;;;;0.10;0.00;;;;;;;;;;6212255;23;20031;-84
2023/10/17 04:46:11;;;;;;;3.67;0.80;;;;;;;;;;6209573;23;20017;-84
2023/10/17 04:48:40;;;;;;;1.98;0.57;;;;;;;;;;6210218;23;20005;-84
2023/10/17 04:53:48;;;;;;;1.30;0.52;;;;;;;;;;6221768;23;20888;-84
2023/10/17 04:56:21;;;;;;;0.68;0.25;;;;;;;;;;6209741;23;20017;-84
2023/10/17 05:01:35;;;;;;;0.38;0.30;;;;;;;;;;6211483;23;20023;-84
2023/10/17 15:17:59;;;;;;;2.08;0.55;;;;;;;;;;6212687;22;20067;-87
2023/10/17 16:10:26;;;;;;;0.93;0.57;;;;;;;;;;6214259;23;20273;-87
2023/10/17 16:19:40;;;;;;;1.20;0.90;;;;;;;;;;6195050;23;20102;-89
2023/10/17 17:33:12;;;;;;;3.83;1.00;;;;;;;;;;6215640;22;20050;-89
2023/10/17 17:35:54;;;;;;;2.15;1.10;;;;;;;;;;6215855;23;20441;-91
2023/10/17 17:38:20;;;;;;;;;;;;;;;;;;6242176;23;20013;-89
2023/10/17 17:40:49;;;;;;;0.95;0.60;;;;;;;;;;6245449;23;19911;-91
2023/10/17 17:43:28;;;;;;;;;;;;;;;;;;;;;
2023/10/17 17:46:28;;;;;;;0.80;0.50;;;;;;;;;;6217271;23;20397;-87
2023/10/17 17:57:49;;;;;;;2.38;0.60;;;;;;;;;;6209918;22;20305;-87
2023/10/17 18:07:31;;;;;;;1.40;0.55;;;;;;;;;;6196057;23;20005;-86
2023/10/17 18:09:57;;;;;;;1.35;0.85;;;;;;;;;;6237791;23;20016;-90
2023/10/17 18:26:20;;;;;;;12.38;2.70;;;;;;;;;;6204805;23;20099;-88
2023/10/17 18:34:55;;;;;;;2.97;1.02;;;;;;;;;;6149337;23;20056;-88
2023/10/17 18:51:11;;;;;;;4.57;2.10;;;;;;;;;;6244451;22;20035;-89
2023/10/17 19:07:34;;;;;;;4.13;1.73;;;;;;;;;;6166624;23;20036;-88
2023/10/17 19:10:22;;;;;;;5.28;2.65;;;;;;;;;;6126386;23;20400;-87
2023/10/17 19:35:59;;;;;;;2.85;1.30;;;;;;;;;;6238983;23;20022;-88
2023/10/17 19:38:46;;;;;;;9.30;1.55;;;;;;;;;;6241635;23;20091;-89
2023/10/17 19:42:00;;;;;;;;;;;;;;;;;;;;;
2023/10/17 19:53:26;;;;;;;;;;;;;;;;;;;;;
2023/10/17 19:56:47;;;;;;;1.50;0.73;;;;;;;;;;6179454;23;20100;-87
2023/10/17 19:59:35;;;;;;;;;;;;;;;;;;;;;
2023/10/17 20:02:28;;;;;;;6.25;1.25;;;;;;;;;;6207870;23;20131;-87
2023/10/17 20:05:08;;;;;;;7.82;1.92;;;;;;;;;;6179864;23;20013;-87
2023/10/17 20:07:49;;;;;;;2.53;0.80;;;;;;;;;;6209904;23;20020;-87
2023/10/17 20:10:18;;;;;;;1.23;0.70;;;;;;;;;;6181183;23;20119;-88
2023/10/17 20:13:18;;;;;;;3.75;1.90;;;;;;;;;;6183898;23;20585;-89
2023/10/17 20:15:44;;;;;;;;;;;;;;;;;;6148876;23;20052;-88
2023/10/17 20:18:26;;;;;;;2.65;0.73;;;;;;;;;;6124711;23;19916;-88
2023/10/17 20:21:06;;;;;;;2.17;1.08;;;;;;;;;;6150861;23;20063;-88
2023/10/17 20:23:38;;;;;;;1.05;0.50;;;;;;;;;;6125488;23;20014;-88
2023/10/17 20:26:06;;;;;;;;;;;;;;;;;;6124533;23;20013;-88
2023/10/17 20:28:40;;;;;;;2.97;1.33;;;;;;;;;;6125497;23;20336;-89
2023/10/17 20:31:08;;;;;;;;;;;;;;;;;;6123728;23;20117;-87
2023/10/17 20:33:43;;;;;;;;;;;;;;;;;;6125892;23;20012;-88
2023/10/17 20:36:09;;;;;;;;;;;;;;;;;;6128503;23;19928;-88
2023/10/17 20:38:35;;;;;;;;;;;;;;;;;;6125989;23;19925;-87
2023/10/17 20:41:10;;;;;;;;;;;;;;;;;;6125154;23;20317;-88
2023/10/17 20:43:36;;;;;;;;;;;;;;;;;;6126688;23;20395;-88
2023/10/17 20:46:05;;;;;;;1.45;0.95;;;;;;;;;;6125480;23;19908;-88
2023/10/17 20:48:34;;;;;;;4.50;1.33;;;;;;;;;;6149702;23;20009;-88
2023/10/17 20:51:03;;;;;;;2.92;1.52;;;;;;;;;;6150740;23;20037;-88
2023/10/17 20:53:44;;;;;;;7.00;1.08;;;;;;;;;;6150983;23;20017;-88
2023/10/17 20:56:14;;;;;;;2.60;1.00;;;;;;;;;;6147720;23;20013;-87
2023/10/17 20:58:42;;;;;;;2.83;1.77;;;;;;;;;;6148693;23;20013;-87
2023/10/17 21:01:08;;;;;;;6.13;2.13;;;;;;;;;;6147235;23;20022;-87
2023/10/17 21:03:35;;;;;;;2.35;1.65;;;;;;;;;;6147867;23;20016;-87
2023/10/17 21:06:04;;;;;;;5.15;1.83;;;;;;;;;;6147882;23;20009;-87
2023/10/17 21:08:30;;;;;;;7.90;3.00;;;;;;;;;;6148940;23;20089;-86
2023/10/17 21:11:00;;;;;;;5.57;1.67;;;;;;;;;;6148704;23;20018;-88
2023/10/17 21:13:29;;;;;;;5.50;1.73;;;;;;;;;;6170796;23;20096;-88
2023/10/17 21:16:03;;;;;;;5.45;1.75;;;;;;;;;;6174703;23;20068;-88
2023/10/17 21:18:29;;;;;;;3.60;1.77;;;;;;;;;;6176584;23;20010;-87
2023/10/17 21:20:58;;;;;;;2.15;1.15;;;;;;;;;;6176791;23;20014;-86
2023/10/17 21:23:24;;;;;;;3.78;1.10;;;;;;;;;;6179493;23;20062;-87
2023/10/17 21:25:59;;;;;;;2.88;1.65;;;;;;;;;;6175337;23;20341;-87
2023/10/17 21:28:33;;;;;;;4.20;2.03;;;;;;;;;;6176168;23;20001;-87
2023/10/17 21:31:02;;;;;;;5.30;2.72;;;;;;;;;;6174375;23;20044;-87
2023/10/17 21:33:31;;;;;;;2.38;1.30;;;;;;;;;;6175392;23;20084;-87
2023/10/17 21:36:07;;;;;;;6.28;2.05;;;;;;;;;;6174513;23;20037;-87
2023/10/17 21:38:39;;;;;;;5.18;1.77;;;;;;;;;;6175072;23;20620;-88
2023/10/17 21:41:07;;;;;;;3.03;1.52;;;;;;;;;;6174169;23;20045;-87
2023/10/17 21:43:33;;;;;;;6.03;1.85;;;;;;;;;;6172885;23;20400;-88
2023/10/17 21:46:00;;;;;;;;;;;;;;;;;;6173936;23;20342;-87
2023/10/17 21:48:33;;;;;;;5.13;1.55;;;;;;;;;;6174791;23;19972;-88
2023/10/17 21:51:02;;;;;;;;;;;;;;;;;;6174567;23;20100;-87
2023/10/17 21:53:28;;;;;;;;;;;;;;;;;;6175692;23;19904;-87
2023/10/17 21:56:04;;;;;;;4.70;1.80;;;;;;;;;;6176033;23;19908;-87
2023/10/17 21:58:39;;;;;;;3.38;1.33;;;;;;;;;;6177263;23;20021;-87
2023/10/17 22:01:14;;;;;;;3.60;1.50;;;;;;;;;;6183525;23;20025;-87
2023/10/17 22:03:44;;;;;;;2.47;0.95;;;;;;;;;;6178419;23;20092;-87
2023/10/17 22:06:10;;;;;;;3.55;1.17;;;;;;;;;;6176807;23;20316;-89
2023/10/17 22:08:40;;;;;;;3.10;1.40;;;;;;;;;;6175260;23;20511;-89
2023/10/17 22:11:12;;;;;;;2.80;1.73;;;;;;;;;;6174696;23;20363;-89
2023/10/17 22:13:39;;;;;;;3.43;1.30;;;;;;;;;;6175663;23;20430;-88
2023/10/17 22:16:06;;;;;;;4.93;1.08;;;;;;;;;;6177582;23;20273;-89
2023/10/17 22:18:32;;;;;;;1.73;1.20;;;;;;;;;;6179965;23;20054;-89
2023/10/17 22:20:58;;;;;;;5.13;1.10;;;;;;;;;;6175950;23;20467;-89
2023/10/17 22:23:24;;;;;;;7.35;1.45;;;;;;;;;;6175221;23;20381;-89
2023/10/17 22:25:50;;;;;;;8.52;0.70;;;;;;;;;;6176276;23;20049;-89
2023/10/17 22:28:16;;;;;;;3.28;1.40;;;;;;;;;;6176881;23;20009;-89
2023/10/17 22:30:44;;;;;;;2.03;0.77;;;;;;;;;;6176248;23;20013;-88
2023/10/17 22:33:13;;;;;;;2.40;1.08;;;;;;;;;;6176760;23;20014;-89
2023/10/17 22:35:39;;;;;;;;;;;;;;;;;;6176124;23;20014;-89
2023/10/17 22:38:08;;;;;;;5.15;1.17;;;;;;;;;;6176338;23;19911;-89
2023/10/17 22:40:37;;;;;;;7.50;1.60;;;;;;;;;;6175354;23;20465;-88
2023/10/17 22:43:09;;;;;;;5.17;1.60;;;;;;;;;;6177083;23;20378;-89
2023/10/17 22:45:36;;;;;;;;;;;;;;;;;;6184304;23;20256;-89
2023/10/17 22:48:02;;;;;;;4.97;1.45;;;;;;;;;;6183406;23;19912;-89
2023/10/17 22:50:29;;;;;;;1.58;0.90;;;;;;;;;;6176708;23;20010;-89
2023/10/17 22:52:55;;;;;;;2.22;1.40;;;;;;;;;;6176196;23;20041;-87
2023/10/17 22:55:21;;;;;;;1.25;0.73;;;;;;;;;;6152986;23;20065;-87
2023/10/17 22:57:47;;;;;;;3.58;1.67;;;;;;;;;;6176634;23;20056;-86
2023/10/17 23:00:19;;;;;;;2.97;0.63;;;;;;;;;;6175855;23;20100;-87
2023/10/17 23:02:46;;;;;;;;;;;;;;;;;;6176465;23;20021;-86
2023/10/17 23:05:12;;;;;;;4.47;0.88;;;;;;;;;;6150074;23;20217;-88
2023/10/17 23:07:38;;;;;;;;;;;;;;;;;;6151040;23;20013;-87
2023/10/17 23:10:06;;;;;;;1.00;0.60;;;;;;;;;;6150865;23;19915;-87
2023/10/17 23:12:32;;;;;;;3.03;1.23;;;;;;;;;;6151006;23;20361;-87
2023/10/17 23:14:58;;;;;;;3.95;1.27;;;;;;;;;;6151441;23;20013;-87
2023/10/17 23:17:24;;;;;;;1.40;0.60;;;;;;;;;;6151171;23;20021;-87
2023/10/17 23:19:50;;;;;;;1.85;1.20;;;;;;;;;;6151484;23;20525;-87
2023/10/17 23:22:16;;;;;;;1.48;1.00;;;;;;;;;;6150608;23;20014;-87
2023/10/17 23:24:42;;;;;;;3.78;0.98;;;;;;;;;;6151494;23;20370;-87
2023/10/17 23:27:08;;;;;;;2.05;1.05;;;;;;;;;;6152783;23;20020;-87
2023/10/17 23:29:34;;;;;;;6.55;1.38;;;;;;;;;;6153167;23;20005;-87
2023/10/17 23:32:01;;;;;;;5.78;1.20;;;;;;;;;;6156604;23;20021;-86
2023/10/17 23:34:27;;;;;;;2.42;0.68;;;;;;;;;;6156928;23;20037;-87
2023/10/17 23:36:53;;;;;;;1.27;0.77;;;;;;;;;;6150436;23;20024;-87
2023/10/17 23:39:19;;;;;;;2.22;1.00;;;;;;;;;;6151138;23;20097;-87
2023/10/17 23:41:45;;;;;;;5.85;1.08;;;;;;;;;;6150252;23;20017;-87
2023/10/17 23:44:14;;;;;;;4.18;0.68;;;;;;;;;;6151095;23;20056;-87
2023/10/17 23:46:40;;;;;;;1.80;0.80;;;;;;;;;;6151287;23;20704;-86
2023/10/17 23:49:09;;;;;;;1.48;1.02;;;;;;;;;;6150533;23;20012;-87
2023/10/17 23:51:36;;;;;;;0.60;0.40;;;;;;;;;;6125554;23;20013;-87
2023/10/17 23:54:02;;;;;;;2.20;1.13;;;;;;;;;;6154661;23;20409;-87
2023/10/17 23:56:30;;;;;;;;;;;;;;;;;;6155879;23;20013;-87
2023/10/17 23:58:57;;;;;;;2.72;0.60;;;;;;;;;;6155760;23;19904;-87
